Aviation Digital Data Service (ADDS)

Output produced by METARs form (1943 UTC 25 March 2017)
found at http://www.aviationweather.gov/adds/metars/
 
FVHA 251800Z 13007KT CAVOK 20/16 Q1023 NOSIG
TAF FVHA 251600Z 2518/2624 14006KT 9999 FEW025CB SCT030 BKN300 
     PROB30 
     TEMPO 2518/2521 8000 -TSRA BKN080 
     BECMG 2602/2604 9999 -DZ BKN010 BKN080 
     BECMG 2608/2610 BKN020 
     PROB30 
     TEMPO 2612/2618 8000 -TSRA FEW015CB BKN080 
     TEMPO 2621/2624 9999 BKN025
       
TAF FVBU 251600Z 2518/2624 13010KT CAVOK 
     BECMG 2600/2602 12014G25KT 
     PROB40 
     TEMPO 2602/2606 BKN010 
     BECMG 2607/2609 BKN030 
     FM261200 CAVOK
       
TAF FVFA 251600Z 2518/2624 10010KT CAVOK 
     BECMG 2607/2609 SCT035 
     BECMG 2610/2612 SCT040TCU 
     PROB30 
     TEMPO 2612/2616 -SHRA FEW035CB 
     BECMG 2618/2620 CAVOK